Time;durP1;ratioP1;P1;durP2;ratioP2;P2;SDS_P1;SDS_P2;PMS_P1;PMS_P2;Temp;Humidity;BMP_temperature;BMP_pressure;BME280_temperature;BME280_humidity;BME280_pressure;Samples;Min_cycle;Max_cycle;Signal;HPM_P1;HPM_P2
2022/07/24 00:00:04;;;;;;;16.65;4.35;;;;;;;22.31;59.19;100469.09;5011151;28;20137;-76
2022/07/24 00:02:31;;;;;;;;;;;;;;;22.39;59.01;100483.19;5028403;28;20513;-77
2022/07/24 00:05:00;;;;;;;16.58;3.13;;;;;;;22.45;58.83;100473.16;5009433;28;19925;-77
2022/07/24 00:07:28;;;;;;;13.67;3.83;;;;;;;22.59;58.80;100481.28;5013545;28;20524;-76
2022/07/24 00:09:55;;;;;;;7.95;3.08;;;;;;;22.55;58.81;100482.38;5010545;28;20140;-76
2022/07/24 00:12:22;;;;;;;15.10;4.53;;;;;;;22.46;58.61;100474.00;5010820;28;20054;-76
2022/07/24 00:14:49;;;;;;;9.23;2.60;;;;;;;22.52;58.37;100483.09;4995947;28;20129;-77
2022/07/24 00:17:16;;;;;;;11.18;2.60;;;;;;;22.38;58.53;100461.59;5008953;28;20460;-76
2022/07/24 00:19:43;;;;;;;9.70;3.13;;;;;;;22.38;58.47;100464.44;5012777;28;20384;-77
2022/07/24 00:22:10;;;;;;;9.45;3.17;;;;;;;22.50;58.41;100474.94;5012840;28;20458;-77
2022/07/24 00:24:37;;;;;;;13.25;3.17;;;;;;;22.37;58.13;100474.16;5010784;28;20136;-77
2022/07/24 00:27:04;;;;;;;10.45;2.95;;;;;;;22.32;58.52;100460.19;5027522;28;20069;-77
2022/07/24 00:29:31;;;;;;;12.90;4.25;;;;;;;22.26;58.64;100467.34;5008099;28;20517;-77
2022/07/24 00:31:57;;;;;;;10.73;2.80;;;;;;;22.24;58.71;100469.72;5019582;28;20141;-77
2022/07/24 00:34:24;;;;;;;9.88;3.22;;;;;;;22.28;58.92;100490.56;5014265;28;20485;-76
2022/07/24 00:36:51;;;;;;;6.40;2.50;;;;;;;22.14;59.15;100464.50;5013148;28;20494;-76
2022/07/24 00:39:18;;;;;;;12.48;2.78;;;;;;;22.22;58.91;100463.53;5016080;28;20081;-77
2022/07/24 00:41:45;;;;;;;15.38;3.53;;;;;;;22.24;58.65;100469.72;5029694;28;20462;-77
2022/07/24 00:44:14;;;;;;;10.98;3.70;;;;;;;22.17;59.29;100484.56;5013849;28;20457;-77
2022/07/24 00:46:43;;;;;;;8.65;3.15;;;;;;;22.19;59.26;100476.50;5011200;28;20513;-77
2022/07/24 00:49:13;;;;;;;12.40;3.90;;;;;;;22.13;59.33;100454.31;5012851;28;20054;-77
2022/07/24 00:51:52;;;;;;;14.52;4.28;;;;;;;22.12;59.20;100467.72;5011702;28;20133;-77
2022/07/24 00:54:22;;;;;;;7.60;2.75;;;;;;;21.95;59.68;100451.78;5011808;28;20085;-76
2022/07/24 00:56:49;;;;;;;;;;;;;;;22.12;59.41;100478.25;5012299;28;20510;-76
2022/07/24 00:59:18;;;;;;;8.63;3.03;;;;;;;22.13;58.99;100486.44;5013291;28;19964;-76
2022/07/24 01:01:47;;;;;;;10.65;3.03;;;;;;;22.02;59.11;100468.22;5011018;28;20053;-77
2022/07/24 01:04:14;;;;;;;9.00;3.47;;;;;;;21.94;59.43;100460.66;5011475;28;20053;-77
2022/07/24 01:06:42;;;;;;;16.58;3.25;;;;;;;21.92;59.47;100455.34;5004234;28;20053;-76
2022/07/24 01:09:10;;;;;;;14.55;4.20;;;;;;;22.05;59.60;100487.41;5011258;28;20469;-76
2022/07/24 01:11:41;;;;;;;10.45;3.15;;;;;;;21.97;59.96;100472.13;5008204;28;20054;-76
2022/07/24 01:14:11;;;;;;;14.60;3.92;;;;;;;22.04;60.17;100470.69;5013788;28;20069;-77
2022/07/24 01:16:38;;;;;;;12.73;3.63;;;;;;;22.10;60.22;100487.16;5011481;28;20079;-76
2022/07/24 01:19:05;;;;;;;13.10;4.78;;;;;;;22.08;59.75;100474.47;5011937;28;20045;-77
2022/07/24 01:21:32;;;;;;;14.45;3.97;;;;;;;22.09;59.62;100473.31;5011854;28;20054;-77
2022/07/24 01:23:59;;;;;;;7.10;3.45;;;;;;;22.00;60.04;100462.88;5012704;28;20136;-77
2022/07/24 01:26:26;;;;;;;12.65;4.00;;;;;;;21.98;59.73;100467.28;5013069;28;20465;-77
2022/07/24 01:28:53;;;;;;;15.57;4.15;;;;;;;22.00;60.58;100473.44;5009604;28;20554;-75
2022/07/24 01:31:20;;;;;;;14.45;3.67;;;;;;;22.13;60.40;100489.28;5012250;28;20045;-76
2022/07/24 01:33:47;;;;;;;16.05;4.35;;;;;;;21.94;59.99;100467.16;5008543;28;20046;-77
2022/07/24 01:36:14;;;;;;;10.55;3.35;;;;;;;22.01;59.70;100495.81;5012687;28;20138;-77
2022/07/24 01:38:41;;;;;;;9.77;3.70;;;;;;;21.75;60.18;100458.47;5008759;28;20158;-77
2022/07/24 01:41:08;;;;;;;16.00;4.22;;;;;;;21.83;60.38;100466.03;5008670;28;20085;-77
2022/07/24 01:43:35;;;;;;;14.65;4.18;;;;;;;21.85;60.56;100489.25;5007542;28;20101;-77
2022/07/24 01:46:02;;;;;;;13.95;4.20;;;;;;;21.95;60.71;100491.59;5009105;28;20144;-77
2022/07/24 01:48:29;;;;;;;18.75;5.43;;;;;;;21.73;60.99;100466.50;5009999;28;20103;-78
2022/07/24 01:50:56;;;;;;;13.95;4.10;;;;;;;21.70;61.25;100472.91;5004959;28;20077;-76
2022/07/24 01:53:23;;;;;;;14.70;4.25;;;;;;;21.70;60.97;100475.75;5028945;28;20125;-76
2022/07/24 01:55:51;;;;;;;20.63;5.35;;;;;;;21.83;61.34;100485.09;5007795;28;20152;-76
2022/07/24 01:58:19;;;;;;;13.85;3.53;;;;;;;21.79;61.37;100465.09;5011989;28;20096;-76
2022/07/24 02:00:48;;;;;;;;;;;;;;;21.91;61.03;100475.59;5011990;28;20049;-76
2022/07/24 02:03:16;;;;;;;13.90;3.20;;;;;;;21.80;60.95;100444.00;5025136;28;19988;-77
2022/07/24 02:05:42;;;;;;;13.85;3.75;;;;;;;21.95;60.64;100460.31;5011440;28;20139;-77
2022/07/24 02:08:09;;;;;;;22.65;4.20;;;;;;;22.13;61.10;100475.06;5007748;28;20496;-77
2022/07/24 02:10:36;;;;;;;10.65;2.75;;;;;;;22.20;60.81;100486.69;5030472;28;20499;-76
2022/07/24 02:13:03;;;;;;;16.05;4.78;;;;;;;22.30;60.61;100482.50;5025471;28;20057;-75
2022/07/24 02:15:33;;;;;;;14.68;3.53;;;;;;;22.30;60.18;100478.81;5011252;28;20052;-77
2022/07/24 02:18:01;;;;;;;13.25;3.60;;;;;;;21.91;60.35;100430.91;5007806;28;20561;-77
2022/07/24 02:20:28;;;;;;;10.82;3.10;;;;;;;22.11;60.48;100462.38;5010142;28;20095;-78
2022/07/24 02:22:55;;;;;;;9.93;3.15;;;;;;;21.84;60.28;100444.09;5013100;28;20128;-77
2022/07/24 02:25:22;;;;;;;13.35;3.67;;;;;;;21.51;61.13;100448.78;4991146;28;20050;-76
2022/07/24 02:27:49;;;;;;;12.63;3.92;;;;;;;21.20;61.54;100408.78;5009620;28;22644;-76
2022/07/24 02:30:19;;;;;;;9.43;3.45;;;;;;;21.38;62.08;100461.34;5008755;28;20053;-76
2022/07/24 02:32:47;;;;;;;8.63;3.63;;;;;;;21.48;62.31;100472.22;5008373;28;20402;-76
2022/07/24 02:35:14;;;;;;;13.25;3.50;;;;;;;21.42;61.89;100472.84;5010374;28;20058;-75
2022/07/24 02:37:43;;;;;;;13.35;3.65;;;;;;;21.33;62.32;100470.06;5010555;28;20050;-75
2022/07/24 02:40:11;;;;;;;14.20;3.88;;;;;;;21.33;62.39;100481.44;5008820;28;20125;-76
2022/07/24 02:42:38;;;;;;;10.60;3.60;;;;;;;21.33;62.71;100461.53;5007349;28;20084;-77
2022/07/24 02:45:06;;;;;;;16.48;3.47;;;;;;;21.62;62.53;100459.66;5009835;28;20473;-76
2022/07/24 02:47:35;;;;;;;11.05;3.45;;;;;;;21.74;62.35;100474.69;5006918;28;20104;-77
2022/07/24 02:50:02;;;;;;;14.32;4.10;;;;;;;21.67;62.12;100446.03;5009120;28;20473;-77
2022/07/24 02:52:29;;;;;;;7.38;4.05;;;;;;;21.66;61.76;100437.88;5007984;28;20080;-77
2022/07/24 02:54:56;;;;;;;6.35;3.28;;;;;;;21.70;62.01;100473.72;5011320;28;20141;-77
2022/07/24 02:57:22;;;;;;;9.02;3.72;;;;;;;21.64;61.84;100471.50;5010556;28;20537;-76
2022/07/24 02:59:51;;;;;;;11.50;3.22;;;;;;;21.55;61.80;100448.09;5006586;28;20078;-77
2022/07/24 03:02:19;;;;;;;11.77;4.65;;;;;;;21.45;62.35;100457.91;5009155;28;20452;-76
2022/07/24 03:04:47;;;;;;;7.18;2.80;;;;;;;21.78;62.10;100474.81;5005717;28;20096;-78
2022/07/24 03:07:14;;;;;;;10.77;3.17;;;;;;;21.90;61.63;100459.72;5008680;28;20403;-77
2022/07/24 03:09:41;;;;;;;13.43;3.67;;;;;;;21.68;62.07;100429.81;5009708;28;20108;-77
2022/07/24 03:12:08;;;;;;;9.35;3.45;;;;;;;22.01;61.64;100463.72;5012854;28;20073;-76
2022/07/24 03:14:37;;;;;;;10.25;3.20;;;;;;;21.94;61.33;100447.25;5012697;28;20045;-78
2022/07/24 03:17:05;;;;;;;5.72;3.38;;;;;;;21.82;61.33;100424.56;5008388;28;20077;-77
2022/07/24 03:19:32;;;;;;;11.35;2.85;;;;;;;22.02;61.31;100459.69;5008992;28;20054;-76
2022/07/24 03:21:59;;;;;;;5.80;3.50;;;;;;;22.16;60.94;100479.25;5005508;28;20137;-77
2022/07/24 03:24:25;;;;;;;12.38;4.30;;;;;;;22.05;61.02;100464.66;5022056;28;20133;-77
2022/07/24 03:26:52;;;;;;;10.50;4.03;;;;;;;22.08;61.19;100465.94;5009779;28;20112;-77
2022/07/24 03:29:19;;;;;;;8.13;3.35;;;;;;;21.88;60.95;100459.25;5009301;28;20078;-76
2022/07/24 03:31:46;;;;;;;18.98;4.53;;;;;;;21.63;60.96;100452.78;5006781;28;20144;-76
2022/07/24 03:34:13;;;;;;;10.45;3.97;;;;;;;21.63;61.37;100447.09;5013297;28;20128;-77
2022/07/24 03:36:40;;;;;;;9.70;3.88;;;;;;;21.58;61.96;100459.56;5012419;28;20085;-77
2022/07/24 03:39:07;;;;;;;12.73;3.88;;;;;;;21.61;61.94;100470.22;4992061;28;20070;-76
2022/07/24 03:41:35;;;;;;;10.98;4.00;;;;;;;21.38;61.97;100472.72;5025542;28;20047;-76
2022/07/24 03:44:03;;;;;;;15.35;4.60;;;;;;;21.25;62.15;100459.66;5011778;28;20153;-77
2022/07/24 03:46:30;;;;;;;13.48;5.18;;;;;;;21.11;62.62;100460.03;5011788;28;20073;-76
2022/07/24 03:48:58;;;;;;;16.52;4.72;;;;;;;21.10;62.93;100461.22;5010358;28;20494;-78
2022/07/24 03:51:25;;;;;;;5.95;3.35;;;;;;;21.12;62.98;100460.84;5011325;28;20080;-78
2022/07/24 03:53:53;;;;;;;18.08;3.92;;;;;;;21.32;62.59;100491.13;5009768;28;20469;-76
2022/07/24 03:56:21;;;;;;;11.63;3.97;;;;;;;21.25;62.99;100486.06;5012998;28;20054;-77
2022/07/24 03:58:52;;;;;;;10.63;3.78;;;;;;;21.33;62.83;100480.59;5014660;28;20495;-76
2022/07/24 04:01:19;;;;;;;10.18;3.97;;;;;;;21.47;62.96;100492.47;5013895;28;20454;-77
2022/07/24 04:03:50;;;;;;;7.75;4.63;;;;;;;21.53;62.97;100482.53;5012935;28;20077;-77
2022/07/24 04:06:17;;;;;;;16.55;4.70;;;;;;;21.74;62.40;100493.75;5011156;28;20055;-76
2022/07/24 04:08:44;;;;;;;23.00;4.13;;;;;;;21.71;62.10;100483.13;5009701;28;20050;-77
2022/07/24 04:11:11;;;;;;;11.18;3.45;;;;;;;21.58;62.18;100472.94;5012281;28;20137;-78
2022/07/24 04:13:38;;;;;;;13.30;4.18;;;;;;;;;;5008417;28;20128;-76
2022/07/24 04:16:09;;;;;;;14.90;4.45;;;;;;;21.74;62.51;100493.75;5010872;28;20107;-76
2022/07/24 04:18:36;;;;;;;7.93;3.60;;;;;;;21.73;62.28;100489.25;5009406;28;20044;-76
2022/07/24 04:21:03;;;;;;;13.68;4.43;;;;;;;21.67;61.83;100474.44;5013767;28;20125;-76
2022/07/24 04:23:30;;;;;;;14.85;4.18;;;;;;;;;;5007696;28;20092;-76
2022/07/24 04:25:57;;;;;;;12.85;4.47;;;;;;;21.75;62.14;100482.03;5011941;28;20046;-76
2022/07/24 04:28:25;;;;;;;11.52;3.97;;;;;;;21.67;62.04;100451.72;5008461;28;20151;-78
2022/07/24 04:30:52;;;;;;;18.20;5.13;;;;;;;21.73;61.78;100472.19;5012346;28;20082;-76
2022/07/24 04:33:19;;;;;;;13.70;4.15;;;;;;;21.81;62.26;100485.44;5010351;28;20438;-76
2022/07/24 04:35:46;;;;;;;25.10;5.25;;;;;;;21.74;62.22;100479.53;5011996;28;20132;-76
2022/07/24 04:38:13;;;;;;;15.70;4.10;;;;;;;21.53;62.33;100468.31;5014029;28;20573;-77
2022/07/24 04:40:40;;;;;;;9.93;4.75;;;;;;;21.56;62.63;100500.88;5010409;28;20065;-76
2022/07/24 04:43:08;;;;;;;11.75;4.28;;;;;;;21.45;62.29;100475.78;5010991;28;20085;-76
2022/07/24 04:45:37;;;;;;;11.73;3.95;;;;;;;21.48;62.84;100475.06;5011900;28;20046;-76
2022/07/24 04:48:05;;;;;;;10.00;3.45;;;;;;;21.44;62.55;100465.63;5010319;28;20108;-76
2022/07/24 04:50:32;;;;;;;12.77;3.45;;;;;;;21.58;62.85;100498.53;5007605;28;20104;-76
2022/07/24 04:52:59;;;;;;;9.57;3.25;;;;;;;21.59;62.66;100497.31;5006364;28;20599;-76
2022/07/24 04:55:25;;;;;;;12.70;3.63;;;;;;;21.58;62.43;100498.53;5012011;28;20569;-76
2022/07/24 04:57:52;;;;;;;12.80;5.07;;;;;;;21.70;62.38;100529.75;5010353;28;20144;-76
2022/07/24 05:00:19;;;;;;;14.93;3.75;;;;;;;21.43;62.55;100497.22;5009930;28;20085;-76
2022/07/24 05:02:46;;;;;;;9.18;3.72;;;;;;;21.28;62.94;100496.69;5025969;28;20123;-76
2022/07/24 05:05:13;;;;;;;7.50;3.17;;;;;;;21.12;63.25;100463.69;5005986;28;20054;-77
2022/07/24 05:07:40;;;;;;;8.55;3.10;;;;;;;21.37;62.81;100498.63;5010448;28;20058;-77
2022/07/24 05:10:07;;;;;;;4.72;2.75;;;;;;;21.55;62.96;100511.41;5011733;28;20048;-77
2022/07/24 05:12:34;;;;;;;8.82;2.72;;;;;;;21.51;62.55;100494.25;5020306;28;20084;-77
2022/07/24 05:15:01;;;;;;;9.90;3.20;;;;;;;21.68;62.67;100509.41;5010570;28;20092;-78
2022/07/24 05:17:28;;;;;;;14.85;4.65;;;;;;;21.79;62.34;100509.75;5007408;28;20081;-76
2022/07/24 05:19:54;;;;;;;10.18;3.90;;;;;;;21.83;62.06;100517.19;5008662;28;20132;-76
2022/07/24 05:22:21;;;;;;;9.38;3.90;;;;;;;21.87;62.06;100520.97;5012002;28;20088;-77
2022/07/24 05:24:48;;;;;;;10.25;3.10;;;;;;;21.99;62.16;100531.50;5004335;28;20049;-77
2022/07/24 05:27:15;;;;;;;12.18;4.07;;;;;;;21.68;61.65;100515.09;5008792;28;20074;-78
2022/07/24 05:29:43;;;;;;;16.40;5.32;;;;;;;21.65;62.09;100532.84;5016777;28;20050;-78
2022/07/24 05:32:10;;;;;;;12.02;2.97;;;;;;;21.60;62.20;100518.88;5007191;28;20149;-78
2022/07/24 05:34:37;;;;;;;11.73;3.38;;;;;;;21.80;62.24;100545.50;5009208;28;20050;-77
2022/07/24 05:37:07;;;;;;;;;;;;;;;21.86;62.00;100536.38;5009968;28;20053;-77
2022/07/24 05:39:34;;;;;;;10.85;3.80;;;;;;;21.93;62.11;100545.13;5010455;28;19921;-78
2022/07/24 05:42:01;;;;;;;11.25;3.88;;;;;;;21.74;62.08;100525.88;5010942;28;20074;-77
2022/07/24 05:44:28;;;;;;;9.85;3.20;;;;;;;21.92;61.90;100552.00;5011567;28;20051;-77
2022/07/24 05:46:55;;;;;;;15.73;3.70;;;;;;;21.90;61.63;100553.53;5009804;28;20081;-77
2022/07/24 05:49:22;;;;;;;12.82;3.38;;;;;;;21.68;61.91;100527.28;5011803;28;20053;-76
2022/07/24 05:51:51;;;;;;;10.38;3.85;;;;;;;21.76;62.13;100542.53;5011512;28;20046;-77
2022/07/24 05:54:18;;;;;;;8.65;2.78;;;;;;;21.73;62.46;100543.25;5009369;28;20137;-77
2022/07/24 05:56:45;;;;;;;11.70;3.78;;;;;;;21.79;62.09;100539.00;5008129;28;21338;-77
2022/07/24 05:59:12;;;;;;;5.15;2.90;;;;;;;21.87;61.97;100563.59;5024549;28;20080;-77
2022/07/24 06:01:39;;;;;;;15.43;3.55;;;;;;;21.81;61.52;100547.16;5024378;28;20081;-77
2022/07/24 06:04:06;;;;;;;17.08;3.85;;;;;;;21.66;61.88;100517.44;5005122;28;20076;-77
2022/07/24 06:06:33;;;;;;;13.40;3.42;;;;;;;21.76;61.88;100534.03;5008158;28;20585;-77
2022/07/24 06:09:00;;;;;;;9.93;3.53;;;;;;;21.73;61.97;100552.59;5012154;28;20049;-77
2022/07/24 06:11:28;;;;;;;11.18;4.32;;;;;;;21.40;62.26;100515.81;5025179;28;20054;-76
2022/07/24 06:13:56;;;;;;;15.82;4.38;;;;;;;21.61;62.19;100537.59;5011194;28;20549;-77
2022/07/24 06:16:23;;;;;;;19.40;3.10;;;;;;;21.73;62.16;100551.78;5008789;28;20081;-76
2022/07/24 06:18:50;;;;;;;11.90;3.47;;;;;;;21.62;62.14;100519.34;5011964;28;20050;-77
2022/07/24 06:21:17;;;;;;;11.30;4.30;;;;;;;21.91;61.77;100564.53;5024535;28;20145;-76
2022/07/24 06:23:44;;;;;;;15.45;3.47;;;;;;;21.92;61.81;100563.38;5003407;28;20146;-76
2022/07/24 06:26:11;;;;;;;8.85;3.17;;;;;;;21.77;62.06;100535.66;5024866;28;20133;-76
2022/07/24 06:28:37;;;;;;;9.02;3.25;;;;;;;21.95;61.49;100581.75;5007553;28;20148;-77
2022/07/24 06:31:04;;;;;;;13.73;3.55;;;;;;;21.68;62.03;100530.13;5010055;28;20107;-76
2022/07/24 06:33:31;;;;;;;9.38;3.28;;;;;;;21.90;61.79;100560.06;5007871;28;20077;-76
2022/07/24 06:35:59;;;;;;;12.15;4.18;;;;;;;21.75;61.75;100546.59;5010954;28;20514;-76
2022/07/24 06:38:26;;;;;;;6.25;3.38;;;;;;;21.93;61.90;100587.78;5024811;28;20550;-89
2022/07/24 06:40:53;;;;;;;10.68;3.20;;;;;;;21.73;62.16;100563.16;5024090;28;20053;-75
2022/07/24 06:43:20;;;;;;;7.57;2.92;;;;;;;21.83;61.93;100579.72;5008644;28;20085;-76
2022/07/24 06:45:47;;;;;;;15.73;2.95;;;;;;;21.96;62.12;100609.81;5007939;28;20046;-80
2022/07/24 06:48:14;;;;;;;15.52;3.72;;;;;;;21.82;61.99;100583.75;5013326;28;20564;-80
2022/07/24 06:50:41;;;;;;;9.50;3.17;;;;;;;21.80;62.09;100597.50;5009755;28;20522;-83
2022/07/24 06:53:08;;;;;;;8.60;3.08;;;;;;;21.81;62.02;100604.00;5015823;28;20053;-80
2022/07/24 06:55:35;;;;;;;12.70;2.90;;;;;;;21.56;62.32;100561.38;5023874;28;20064;-83
2022/07/24 06:58:02;;;;;;;8.80;3.70;;;;;;;21.70;62.18;100575.22;5023355;28;20053;-78
2022/07/24 07:00:29;;;;;;;9.07;2.65;;;;;;;21.77;62.02;100589.66;5017607;28;20070;-76
2022/07/24 07:02:56;;;;;;;8.32;2.55;;;;;;;21.68;61.91;100589.81;5014890;28;20158;-77
2022/07/24 07:05:23;;;;;;;8.63;2.90;;;;;;;21.72;61.95;100607.81;5021168;28;20081;-80
2022/07/24 07:07:50;;;;;;;8.18;3.20;;;;;;;21.57;62.30;100599.97;5007987;28;20132;-79
2022/07/24 07:10:17;;;;;;;7.10;3.20;;;;;;;21.46;62.02;100568.34;5011224;28;20112;-82
2022/07/24 07:12:44;;;;;;;6.57;2.80;;;;;;;21.64;62.24;100613.59;5009073;28;20129;-80
2022/07/24 07:15:11;;;;;;;10.45;3.13;;;;;;;21.57;62.21;100610.50;5008728;28;20085;-76
2022/07/24 07:17:39;;;;;;;12.75;3.33;;;;;;;21.66;62.16;100640.47;5008647;28;20137;-73
2022/07/24 07:20:08;;;;;;;12.75;3.35;;;;;;;21.28;62.14;100587.59;5006978;28;20049;-80
2022/07/24 07:22:35;;;;;;;12.80;3.20;;;;;;;21.36;62.27;100617.09;5018434;28;20077;-79
2022/07/24 07:25:02;;;;;;;8.10;3.17;;;;;;;21.41;62.19;100625.41;5012422;28;20081;-83
2022/07/24 07:27:29;;;;;;;12.98;3.03;;;;;;;21.51;62.45;100653.38;5009920;28;20473;-72
2022/07/24 07:29:56;;;;;;;11.00;3.08;;;;;;;21.61;62.39;100657.78;5006321;28;20074;-73
2022/07/24 07:32:23;;;;;;;19.02;4.95;;;;;;;21.18;62.17;100592.91;5007932;28;20138;-72
2022/07/24 07:34:50;;;;;;;12.40;3.25;;;;;;;21.46;62.21;100645.06;5004476;28;20149;-74
2022/07/24 07:37:19;;;;;;;7.97;2.88;;;;;;;21.60;62.55;100672.31;5006098;28;20050;-72
2022/07/24 07:39:46;;;;;;;7.78;3.20;;;;;;;21.74;62.22;100676.50;5007880;28;20128;-73
2022/07/24 07:42:13;;;;;;;9.73;3.03;;;;;;;21.67;62.19;100662.03;5007383;28;20104;-76
2022/07/24 07:44:40;;;;;;;11.48;3.58;;;;;;;21.73;62.08;100669.13;5010863;28;20092;-75
2022/07/24 07:47:07;;;;;;;8.65;4.03;;;;;;;21.60;62.22;100660.94;5004848;28;20137;-73
2022/07/24 07:49:34;;;;;;;10.43;3.13;;;;;;;21.61;62.06;100662.63;5008827;28;20133;-73
2022/07/24 07:52:01;;;;;;;9.82;2.78;;;;;;;21.69;62.20;100670.22;5005262;28;20077;-77
2022/07/24 07:54:29;;;;;;;6.35;2.90;;;;;;;21.57;62.34;100664.50;5004754;28;20064;-72
2022/07/24 07:56:56;;;;;;;8.23;3.05;;;;;;;21.39;62.10;100670.38;5022384;28;20088;-73
2022/07/24 07:59:23;;;;;;;7.82;2.75;;;;;;;21.63;62.46;100700.03;5006965;28;20073;-72
2022/07/24 08:01:50;;;;;;;10.27;3.25;;;;;;;21.55;62.27;100693.28;4983848;28;20136;-72
2022/07/24 08:04:17;;;;;;;8.98;3.15;;;;;;;21.48;62.21;100676.81;5007211;28;20058;-71
2022/07/24 08:06:44;;;;;;;5.95;2.53;;;;;;;21.50;62.05;100677.28;5007325;28;20140;-73
2022/07/24 08:09:13;;;;;;;8.65;3.28;;;;;;;21.68;62.13;100691.31;5006323;28;20046;-80
2022/07/24 08:11:40;;;;;;;10.68;3.95;;;;;;;21.58;61.98;100678.38;5021982;28;20141;-81
2022/07/24 08:14:07;;;;;;;7.47;2.90;;;;;;;21.43;62.09;100651.44;5009420;28;20062;-80
2022/07/24 08:16:34;;;;;;;9.68;2.72;;;;;;;21.59;62.04;100682.03;5010498;28;20054;-79
2022/07/24 08:19:00;;;;;;;6.40;3.10;;;;;;;21.43;61.73;100659.97;5011071;28;20085;-78
2022/07/24 08:21:28;;;;;;;7.47;2.92;;;;;;;21.74;61.68;100701.22;5008845;28;20092;-73
2022/07/24 08:23:54;;;;;;;8.60;3.20;;;;;;;21.73;61.68;100688.22;5006574;28;20141;-73
2022/07/24 08:26:21;;;;;;;9.75;3.55;;;;;;;21.77;61.38;100701.34;5004767;28;20772;-72
2022/07/24 08:28:48;;;;;;;10.27;3.50;;;;;;;21.77;61.55;100700.53;5009161;28;20536;-77
2022/07/24 08:31:15;;;;;;;13.18;3.97;;;;;;;21.67;61.33;100675.41;5023946;28;20058;-76
2022/07/24 08:33:42;;;;;;;10.13;3.30;;;;;;;21.70;61.33;100694.59;5009397;28;20050;-74
2022/07/24 08:36:09;;;;;;;7.93;3.15;;;;;;;21.76;61.15;100698.88;5008535;28;20088;-75
2022/07/24 08:38:36;;;;;;;7.15;3.38;;;;;;;21.70;61.48;100684.06;5010053;28;20137;-75
2022/07/24 08:41:05;;;;;;;6.65;2.88;;;;;;;21.86;61.12;100687.03;5010736;28;20477;-77
2022/07/24 08:43:31;;;;;;;12.15;3.65;;;;;;;21.82;61.42;100673.91;5008845;28;20184;-74
2022/07/24 08:46:00;;;;;;;10.75;3.20;;;;;;;22.17;61.16;100686.50;5006897;28;20088;-83
2022/07/24 08:48:27;;;;;;;6.93;2.80;;;;;;;22.23;60.96;100684.25;5022186;28;20077;-82
2022/07/24 08:50:55;;;;;;;5.45;2.17;;;;;;;22.16;60.78;100669.81;5006966;28;20045;-77
2022/07/24 08:53:23;;;;;;;6.82;2.55;;;;;;;22.29;60.56;100699.91;5001131;28;20136;-80
2022/07/24 08:55:50;;;;;;;10.23;2.90;;;;;;;22.10;60.35;100662.66;5009598;28;20062;-79
2022/07/24 08:58:17;;;;;;;3.90;2.22;;;;;;;22.23;60.62;100672.88;5010537;28;20081;-80
2022/07/24 09:00:45;;;;;;;6.50;2.33;;;;;;;22.40;60.29;100700.25;5012224;28;20625;-80
2022/07/24 09:03:12;;;;;;;7.43;2.53;;;;;;;22.44;60.27;100707.69;5007497;28;20597;-79
2022/07/24 09:05:58;;;;;;;6.72;2.38;;;;;;;22.32;60.37;100696.31;5013250;28;20107;-78
2022/07/24 09:08:25;;;;;;;4.70;2.30;;;;;;;22.18;59.70;100670.25;5012282;28;20073;-79
2022/07/24 09:11:03;;;;;;;5.90;2.42;;;;;;;22.38;59.64;100702.59;5009997;28;20759;-80
2022/07/24 09:16:22;;;;;;;6.07;3.13;;;;;;;22.34;59.29;100708.19;5011293;28;20153;-80
2022/07/24 09:19:02;;;;;;;4.43;2.30;;;;;;;22.17;59.39;100686.50;5011825;28;20572;-80
2022/07/24 09:21:35;;;;;;;5.07;2.92;;;;;;;22.35;58.90;100717.53;5009955;28;20061;-79
2022/07/24 09:24:14;;;;;;;6.37;2.63;;;;;;;22.30;59.50;100712.94;5009904;28;20132;-79
2022/07/24 09:26:56;;;;;;;6.97;2.63;;;;;;;22.27;59.18;100715.66;5011968;28;20378;-79
2022/07/24 09:29:25;;;;;;;3.53;2.53;;;;;;;22.16;59.24;100692.56;5011229;28;20506;-80
2022/07/24 09:31:57;;;;;;;4.95;2.50;;;;;;;22.31;59.12;100720.28;5012259;28;20132;-81
2022/07/24 09:34:27;;;;;;;5.75;3.15;;;;;;;22.28;59.19;100720.16;5007443;28;20081;-80
2022/07/24 09:37:02;;;;;;;9.32;2.80;;;;;;;22.18;59.39;100725.13;5010510;28;20522;-79
2022/07/24 09:39:33;;;;;;;7.05;3.17;;;;;;;22.22;59.52;100739.47;5012264;28;20574;-80
2022/07/24 09:42:02;;;;;;;6.05;3.03;;;;;;;22.19;59.44;100728.81;5013694;28;20089;-80
2022/07/24 09:44:30;;;;;;;5.93;2.72;;;;;;;22.24;59.45;100735.09;5011818;28;20093;-80
2022/07/24 09:47:02;;;;;;;11.35;3.90;;;;;;;22.11;59.70;100716.31;5012875;28;20097;-80
2022/07/24 09:49:30;;;;;;;8.10;3.45;;;;;;;22.29;59.59;100739.72;5007161;28;20211;-80
2022/07/24 09:52:10;;;;;;;6.90;3.22;;;;;;;22.30;59.57;100735.69;5011192;28;20137;-80
2022/07/24 09:54:40;;;;;;;6.30;2.80;;;;;;;22.27;59.45;100742.09;5010311;28;20060;-79
2022/07/24 09:57:24;;;;;;;8.68;4.03;;;;;;;22.06;59.32;100713.72;5011446;28;20584;-80
2022/07/24 09:59:52;;;;;;;8.40;3.70;;;;;;;22.31;59.33;100754.41;5011732;28;20053;-79
2022/07/24 10:02:32;;;;;;;9.55;3.35;;;;;;;22.23;59.38;100741.16;5012393;28;20133;-79
2022/07/24 10:05:01;;;;;;;10.02;3.70;;;;;;;22.23;59.12;100729.75;5012320;28;20049;-81
2022/07/24 10:07:29;;;;;;;7.88;3.80;;;;;;;22.28;59.44;100748.59;5012378;28;20079;-80
2022/07/24 10:09:58;;;;;;;9.80;3.40;;;;;;;22.06;59.34;100707.22;5012272;28;20570;-78
2022/07/24 10:12:29;;;;;;;9.43;3.10;;;;;;;22.37;59.72;100761.53;5023695;28;20054;-80
2022/07/24 10:14:58;;;;;;;6.55;3.60;;;;;;;22.47;59.32;100763.06;5006475;28;20050;-82
2022/07/24 10:18:13;;;;;;;11.77;4.15;;;;;;;22.34;59.35;100767.09;5012680;28;20136;-80
2022/07/24 10:20:43;;;;;;;11.70;3.25;;;;;;;22.14;59.46;100746.91;5005443;28;20187;-80
2022/07/24 10:23:27;;;;;;;12.63;4.43;;;;;;;22.29;59.41;100756.81;5009905;28;20069;-80
2022/07/24 10:26:06;;;;;;;8.40;3.33;;;;;;;22.18;59.65;100725.13;5009588;28;20077;-80
2022/07/24 10:28:43;;;;;;;8.20;3.45;;;;;;;22.25;59.39;100716.00;5013810;28;20060;-79
2022/07/24 10:31:13;;;;;;;5.95;2.90;;;;;;;22.57;59.31;100739.00;5013513;28;20166;-80
2022/07/24 10:33:44;;;;;;;6.82;3.10;;;;;;;22.76;59.22;100739.19;5013073;28;20506;-81
2022/07/24 10:36:17;;;;;;;10.00;3.22;;;;;;;22.91;58.49;100749.84;5028490;28;20054;-79
2022/07/24 10:38:55;;;;;;;7.90;3.10;;;;;;;22.68;58.59;100723.91;5011441;28;20459;-81
2022/07/24 10:41:25;;;;;;;8.15;2.72;;;;;;;22.67;58.59;100744.22;5008518;28;20558;-80
2022/07/24 10:44:17;;;;;;;5.78;2.88;;;;;;;22.76;58.44;100750.56;5011007;28;20057;-79
2022/07/24 10:47:04;;;;;;;8.48;3.10;;;;;;;22.98;58.39;100754.97;5012659;28;20045;-80
2022/07/24 10:49:50;;;;;;;8.18;2.72;;;;;;;23.02;57.96;100749.38;5010705;28;20544;-81
2022/07/24 10:52:24;;;;;;;6.53;3.53;;;;;;;23.18;57.78;100742.56;5012204;28;20050;-80
2022/07/24 10:55:22;;;;;;;7.70;3.28;;;;;;;23.53;57.77;100764.72;5006156;28;20566;-80
2022/07/24 10:58:01;;;;;;;3.92;2.53;;;;;;;23.53;57.06;100753.34;5011514;28;20495;-80
2022/07/24 11:00:37;;;;;;;5.90;2.60;;;;;;;23.59;57.10;100751.03;5026706;28;20069;-81
2022/07/24 11:03:22;;;;;;;6.88;2.92;;;;;;;23.74;57.05;100758.84;5004049;28;20050;-80
2022/07/24 11:06:06;;;;;;;6.03;2.80;;;;;;;23.77;56.69;100758.09;5010730;28;20507;-80
2022/07/24 11:08:53;;;;;;;8.80;3.40;;;;;;;23.84;56.96;100758.31;5012251;28;20137;-80
2022/07/24 11:11:21;;;;;;;5.50;2.63;;;;;;;23.78;56.50;100759.75;5011747;28;20125;-79
2022/07/24 11:13:50;;;;;;;8.70;2.63;;;;;;;23.80;55.78;100753.69;5009598;28;20046;-79
2022/07/24 11:16:22;;;;;;;8.27;2.50;;;;;;;24.00;56.05;100748.91;5012447;28;20057;-80
2022/07/24 11:18:49;;;;;;;6.82;2.88;;;;;;;24.26;55.88;100754.91;5011067;28;20073;-80
2022/07/24 11:21:37;;;;;;;6.18;2.60;;;;;;;24.43;55.40;100741.50;5010732;28;20136;-80
2022/07/24 11:24:14;;;;;;;8.23;2.45;;;;;;;24.81;54.50;100733.00;5009003;28;20054;-80
2022/07/24 11:26:58;;;;;;;5.00;3.08;;;;;;;25.37;54.16;100731.81;5011948;28;20049;-79
2022/07/24 11:29:32;;;;;;;8.52;3.40;;;;;;;25.79;53.43;100718.72;5011923;28;20545;-80
2022/07/24 11:32:05;;;;;;;6.18;2.40;;;;;;;26.39;52.26;100725.53;5010115;28;20569;-79
2022/07/24 11:34:38;;;;;;;4.30;2.60;;;;;;;26.66;51.63;100734.97;5012896;28;20050;-79